Time;durP1;ratioP1;P1;durP2;ratioP2;P2;SDS_P1;SDS_P2;PMS_P1;PMS_P2;Temp;Humidity;BMP_temperature;BMP_pressure;BME280_temperature;BME280_humidity;BME280_pressure;Samples;Min_cycle;Max_cycle;Signal;HPM_P1;HPM_P2
2021/09/19 00:00:51;;;;;;;9.13;8.07;;;15.10;99.90;;;;;;6207097;23;20024;-76
2021/09/19 00:03:17;;;;;;;9.13;8.23;;;15.10;99.90;;;;;;6185632;23;20103;-76
2021/09/19 00:05:43;;;;;;;10.07;8.48;;;15.10;99.90;;;;;;6208882;23;20062;-76
2021/09/19 00:08:09;;;;;;;9.32;8.40;;;15.10;99.90;;;;;;6185817;23;20017;-76
2021/09/19 00:10:35;;;;;;;8.88;7.97;;;15.10;99.90;;;;;;6159496;23;20027;-75
2021/09/19 00:13:00;;;;;;;8.18;7.38;;;15.10;99.90;;;;;;6159032;23;20095;-77
2021/09/19 00:15:29;;;;;;;9.10;8.20;;;15.10;99.90;;;;;;6162020;23;20023;-77
2021/09/19 00:17:55;;;;;;;8.48;7.68;;;15.10;99.90;;;;;;6208916;23;20114;-76
2021/09/19 00:20:24;;;;;;;7.88;7.15;;;15.10;99.90;;;;;;6212445;23;20625;-77
2021/09/19 00:22:50;;;;;;;7.38;6.68;;;15.10;99.90;;;;;;6185167;23;20016;-76
2021/09/19 00:25:16;;;;;;;8.05;6.38;;;15.10;99.90;;;;;;6185811;23;20392;-78
2021/09/19 00:27:42;;;;;;;6.63;6.03;;;15.10;99.90;;;;;;6213201;23;20024;-77
2021/09/19 00:30:11;;;;;;;8.27;6.10;;;15.10;99.90;;;;;;6183361;23;20110;-77
2021/09/19 00:32:38;;;;;;;6.47;5.80;;;15.10;99.90;;;;;;6212722;23;20089;-77
2021/09/19 00:35:06;;;;;;;5.68;5.10;;;15.10;99.90;;;;;;6186297;23;20023;-76
2021/09/19 00:37:32;;;;;;;6.13;5.18;;;15.10;99.90;;;;;;6186509;23;20063;-76
2021/09/19 00:39:58;;;;;;;5.53;4.80;;;15.10;99.90;;;;;;6187855;23;20463;-77
2021/09/19 00:42:24;;;;;;;5.53;4.38;;;15.10;99.90;;;;;;6186455;23;20750;-77
2021/09/19 00:45:11;;;;;;;5.88;4.25;;;15.10;99.90;;;;;;6211304;23;20449;-78
2021/09/19 00:47:39;;;;;;;5.10;4.00;;;15.10;99.90;;;;;;6239836;23;20098;-77
2021/09/19 00:50:06;;;;;;;6.45;3.58;;;15.10;99.90;;;;;;6186007;23;20109;-77
2021/09/19 00:52:33;;;;;;;4.97;3.58;;;15.20;99.90;;;;;;6210725;23;20020;-77
2021/09/19 00:55:00;;;;;;;4.32;3.20;;;15.20;99.90;;;;;;6188031;23;20444;-76
2021/09/19 00:57:27;;;;;;;5.28;3.08;;;15.10;99.90;;;;;;6187568;23;20020;-77
2021/09/19 00:59:54;;;;;;;3.60;2.75;;;15.10;99.90;;;;;;6182555;23;20207;-77
2021/09/19 01:02:21;;;;;;;3.40;2.60;;;15.10;99.90;;;;;;6187359;23;20039;-77
2021/09/19 01:04:48;;;;;;;5.07;2.75;;;15.10;99.90;;;;;;6161958;23;20016;-77
2021/09/19 01:07:15;;;;;;;3.78;2.40;;;15.10;99.90;;;;;;6210540;23;20111;-78
2021/09/19 01:09:42;;;;;;;6.22;2.42;;;15.10;99.90;;;;;;6187074;23;20023;-77
2021/09/19 01:12:09;;;;;;;3.50;2.53;;;15.10;99.90;;;;;;6184696;23;20023;-77
2021/09/19 01:14:41;;;;;;;3.67;2.35;;;15.20;99.90;;;;;;6209230;23;20016;-77
2021/09/19 01:17:08;;;;;;;4.45;2.38;;;15.20;99.90;;;;;;6186550;23;20664;-77
2021/09/19 01:19:37;;;;;;;4.53;2.58;;;15.10;99.90;;;;;;6186755;23;20055;-76
2021/09/19 01:22:04;;;;;;;4.57;2.33;;;15.10;99.90;;;;;;6187236;23;20023;-77
2021/09/19 01:24:31;;;;;;;3.83;2.25;;;15.10;99.90;;;;;;6209760;23;20016;-77
2021/09/19 01:26:57;;;;;;;4.50;2.42;;;15.10;99.90;;;;;;6185511;23;20028;-76
2021/09/19 01:29:22;;;;;;;4.30;2.35;;;15.10;99.90;;;;;;6209157;23;20016;-77
2021/09/19 01:31:49;;;;;;;4.78;2.80;;;15.10;99.90;;;;;;6162361;23;20416;-77
2021/09/19 01:34:18;;;;;;;3.58;2.30;;;15.00;99.90;;;;;;6210946;23;20016;-76
2021/09/19 01:36:43;;;;;;;5.30;2.58;;;15.00;99.90;;;;;;6159776;23;20340;-77
2021/09/19 01:39:10;;;;;;;3.63;2.60;;;15.10;99.90;;;;;;6211826;23;20027;-76
2021/09/19 01:41:37;;;;;;;3.47;2.53;;;15.00;99.90;;;;;;6210545;23;20048;-77
2021/09/19 01:44:07;;;;;;;4.75;2.50;;;15.00;99.90;;;;;;6185392;23;20576;-77
2021/09/19 01:46:33;;;;;;;4.88;2.78;;;15.00;99.90;;;;;;6205909;23;20420;-77
2021/09/19 01:48:59;;;;;;;5.78;2.65;;;15.00;99.90;;;;;;6211862;23;20381;-77
2021/09/19 01:51:25;;;;;;;6.13;2.70;;;15.00;99.90;;;;;;6162474;23;20027;-77
2021/09/19 01:53:51;;;;;;;3.80;2.60;;;15.00;99.90;;;;;;6158316;23;20019;-76
2021/09/19 01:56:18;;;;;;;3.80;2.90;;;15.00;99.90;;;;;;6163250;23;20020;-77
2021/09/19 01:58:51;;;;;;;3.83;2.85;;;15.00;99.90;;;;;;6207266;23;20020;-76
2021/09/19 02:01:21;;;;;;;3.38;2.72;;;15.00;99.90;;;;;;6186232;23;20452;-77
2021/09/19 02:03:48;;;;;;;;;;;15.00;99.90;;;;;;6185857;23;20020;-77
2021/09/19 02:06:14;;;;;;;3.42;3.03;;;14.90;99.90;;;;;;6211233;23;19915;-77
2021/09/19 02:08:40;;;;;;;3.97;2.60;;;15.00;99.90;;;;;;6212733;23;20016;-77
2021/09/19 02:11:09;;;;;;;4.80;3.35;;;14.90;99.90;;;;;;6209553;23;20403;-73
2021/09/19 02:13:36;;;;;;;7.45;3.10;;;14.90;99.90;;;;;;6212570;23;20576;-74
2021/09/19 02:16:02;;;;;;;4.22;3.28;;;14.90;99.90;;;;;;6212007;23;20012;-73
2021/09/19 02:18:28;;;;;;;4.90;3.30;;;14.90;99.90;;;;;;6186600;23;20016;-73
2021/09/19 02:20:54;;;;;;;5.57;3.55;;;14.90;99.90;;;;;;6187375;23;20131;-73
2021/09/19 02:23:20;;;;;;;5.18;3.20;;;14.90;99.90;;;;;;6183663;23;20012;-73
2021/09/19 02:25:47;;;;;;;3.75;3.10;;;14.90;99.90;;;;;;6187735;23;20039;-73
2021/09/19 02:28:12;;;;;;;4.35;3.05;;;14.90;99.90;;;;;;6212540;23;20027;-73
2021/09/19 02:30:39;;;;;;;6.07;3.42;;;14.90;99.90;;;;;;6185377;23;20016;-73
2021/09/19 02:33:04;;;;;;;5.25;3.58;;;14.90;99.90;;;;;;6185102;23;20831;-73
2021/09/19 02:35:30;;;;;;;5.28;4.10;;;14.90;99.90;;;;;;6163531;23;20016;-73
2021/09/19 02:37:56;;;;;;;5.68;4.15;;;14.80;99.90;;;;;;6161529;23;20047;-73
2021/09/19 02:40:22;;;;;;;5.10;4.20;;;14.80;99.90;;;;;;6137761;23;20016;-73
2021/09/19 02:42:52;;;;;;;5.47;4.63;;;14.80;99.90;;;;;;6161426;23;20022;-74
2021/09/19 02:45:18;;;;;;;6.47;4.72;;;14.80;99.90;;;;;;6186697;23;20039;-77
2021/09/19 02:47:44;;;;;;;5.63;4.18;;;14.80;99.90;;;;;;6212152;23;20020;-77
2021/09/19 02:50:13;;;;;;;7.95;4.78;;;14.80;99.90;;;;;;6211212;23;20028;-77
2021/09/19 02:52:39;;;;;;;6.15;5.43;;;14.80;99.90;;;;;;6186170;23;20027;-73
2021/09/19 02:55:06;;;;;;;6.97;4.80;;;14.80;99.90;;;;;;6163266;23;20012;-77
2021/09/19 02:57:32;;;;;;;6.95;5.45;;;14.80;99.90;;;;;;6184288;23;20019;-77
2021/09/19 02:59:58;;;;;;;6.55;5.50;;;14.80;99.90;;;;;;6187141;23;20016;-75
2021/09/19 03:02:24;;;;;;;8.45;5.93;;;14.80;99.90;;;;;;6185781;23;20016;-77
2021/09/19 03:04:49;;;;;;;6.40;5.80;;;14.80;99.90;;;;;;6161627;23;20626;-77
2021/09/19 03:07:15;;;;;;;6.63;5.65;;;14.80;99.90;;;;;;6186172;23;20025;-77
2021/09/19 03:09:41;;;;;;;9.35;6.40;;;14.80;99.90;;;;;;6184206;23;20024;-76
2021/09/19 03:12:07;;;;;;;7.20;6.50;;;14.80;99.90;;;;;;6186865;23;20488;-77
2021/09/19 03:14:33;;;;;;;6.85;6.15;;;14.80;99.90;;;;;;6210096;23;20017;-76
2021/09/19 03:16:59;;;;;;;7.40;6.47;;;14.80;99.90;;;;;;6184524;23;20019;-76
2021/09/19 03:19:24;;;;;;;6.80;5.82;;;14.80;99.90;;;;;;6187634;23;20456;-76
2021/09/19 03:21:53;;;;;;;7.68;6.72;;;14.80;99.90;;;;;;6186030;23;20028;-77
2021/09/19 03:24:19;;;;;;;8.80;6.25;;;14.80;99.90;;;;;;6159828;23;20024;-77
2021/09/19 03:26:44;;;;;;;7.03;6.30;;;14.80;99.90;;;;;;6161518;23;20091;-76
2021/09/19 03:29:10;;;;;;;8.98;6.50;;;14.80;99.90;;;;;;6185005;23;20347;-77
2021/09/19 03:31:36;;;;;;;10.15;7.45;;;14.80;99.90;;;;;;6162439;23;20020;-76
2021/09/19 03:34:02;;;;;;;6.78;6.07;;;14.80;99.90;;;;;;6186568;23;20016;-76
2021/09/19 03:36:27;;;;;;;7.68;6.78;;;14.80;99.90;;;;;;6212056;23;20020;-76
2021/09/19 03:38:53;;;;;;;8.73;6.82;;;14.80;99.90;;;;;;6184725;23;20052;-76
2021/09/19 03:41:19;;;;;;;7.43;6.72;;;14.70;99.90;;;;;;6211882;23;20016;-76
2021/09/19 03:43:45;;;;;;;9.35;7.72;;;14.70;99.90;;;;;;6211959;23;20016;-74
2021/09/19 03:46:10;;;;;;;8.13;7.32;;;14.70;99.90;;;;;;6211134;23;20334;-73
2021/09/19 03:48:36;;;;;;;9.73;7.57;;;14.70;99.90;;;;;;6212880;23;20480;-73
2021/09/19 03:51:02;;;;;;;8.52;7.55;;;14.80;99.90;;;;;;6185765;23;20024;-72
2021/09/19 03:53:28;;;;;;;8.10;7.30;;;14.80;99.90;;;;;;6212341;23;20012;-76
2021/09/19 03:55:55;;;;;;;8.30;7.40;;;14.80;99.90;;;;;;6186350;23;20059;-76
2021/09/19 03:58:24;;;;;;;9.80;8.40;;;14.70;99.90;;;;;;6191095;23;20460;-77
2021/09/19 04:00:56;;;;;;;8.73;7.82;;;14.70;99.90;;;;;;6188482;23;20144;-77
2021/09/19 04:03:21;;;;;;;9.45;8.55;;;14.80;99.90;;;;;;6164844;23;20016;-76
2021/09/19 04:05:47;;;;;;;10.05;8.05;;;14.70;99.90;;;;;;6186937;23;20074;-77
2021/09/19 04:08:13;;;;;;;11.02;8.95;;;14.70;99.90;;;;;;6187673;23;20016;-76
2021/09/19 04:10:39;;;;;;;11.52;8.35;;;14.70;99.90;;;;;;6164700;23;20024;-76
2021/09/19 04:13:04;;;;;;;9.60;7.93;;;14.70;99.90;;;;;;6186512;23;20942;-77
2021/09/19 04:15:30;;;;;;;11.23;8.52;;;14.70;99.90;;;;;;6212246;23;20020;-77
2021/09/19 04:17:59;;;;;;;14.40;8.48;;;14.70;99.90;;;;;;6164571;23;20043;-73
2021/09/19 04:20:25;;;;;;;11.05;7.72;;;14.70;99.90;;;;;;6163437;23;20020;-73
2021/09/19 04:22:54;;;;;;;11.75;7.68;;;14.70;99.90;;;;;;6189373;23;21104;-73
2021/09/19 04:25:19;;;;;;;9.80;7.78;;;14.70;99.90;;;;;;6214104;23;20123;-73
2021/09/19 04:27:45;;;;;;;9.52;7.82;;;14.60;99.90;;;;;;6212244;23;20052;-74
2021/09/19 04:30:12;;;;;;;8.90;7.20;;;14.60;99.90;;;;;;6162894;23;20027;-77
2021/09/19 04:32:38;;;;;;;8.60;6.82;;;14.70;99.90;;;;;;6188300;23;20023;-74
2021/09/19 04:35:04;;;;;;;7.63;6.43;;;14.60;99.90;;;;;;6188821;23;20027;-74
2021/09/19 04:37:30;;;;;;;8.30;6.82;;;14.60;99.90;;;;;;6162451;23;20019;-74
2021/09/19 04:39:56;;;;;;;10.05;7.15;;;14.60;99.90;;;;;;6161925;23;20020;-74
2021/09/19 04:42:22;;;;;;;10.43;6.28;;;14.50;99.90;;;;;;6187475;23;20016;-73
2021/09/19 04:44:49;;;;;;;8.60;6.22;;;14.50;99.90;;;;;;6214849;23;20074;-74
2021/09/19 04:47:15;;;;;;;9.18;6.57;;;14.40;99.90;;;;;;6187758;23;20022;-74
2021/09/19 04:49:41;;;;;;;7.82;6.25;;;14.40;99.90;;;;;;6189311;23;20020;-73
2021/09/19 04:52:07;;;;;;;9.38;6.15;;;14.30;99.90;;;;;;6211433;23;20070;-74
2021/09/19 04:54:33;;;;;;;8.65;5.97;;;14.30;99.90;;;;;;6189476;23;20471;-74
2021/09/19 04:56:59;;;;;;;7.95;6.60;;;14.30;99.90;;;;;;6188329;23;20012;-74
2021/09/19 04:59:25;;;;;;;10.43;6.50;;;14.30;99.90;;;;;;6187236;23;20070;-73
2021/09/19 05:01:51;;;;;;;9.18;7.07;;;14.20;99.90;;;;;;6213408;23;20456;-75
2021/09/19 05:04:18;;;;;;;7.40;5.82;;;14.20;99.90;;;;;;6186586;23;20016;-73
2021/09/19 05:06:43;;;;;;;10.40;6.68;;;14.20;99.90;;;;;;6187149;23;20115;-73
2021/09/19 05:09:09;;;;;;;11.20;6.63;;;14.10;99.90;;;;;;6137184;23;20449;-73
2021/09/19 05:11:35;;;;;;;8.57;6.25;;;14.10;99.90;;;;;;6186720;23;20027;-74
2021/09/19 05:14:01;;;;;;;8.85;6.85;;;14.00;99.90;;;;;;6139928;23;20348;-74
2021/09/19 05:16:27;;;;;;;9.68;6.28;;;14.00;99.90;;;;;;6185894;23;20530;-78
2021/09/19 05:18:56;;;;;;;10.02;6.13;;;14.00;99.90;;;;;;6187468;23;20031;-77
2021/09/19 05:21:22;;;;;;;9.05;6.05;;;13.90;99.90;;;;;;6188342;23;20525;-77
2021/09/19 05:23:48;;;;;;;11.25;6.43;;;13.90;99.90;;;;;;6186718;23;20051;-77
2021/09/19 05:26:14;;;;;;;9.75;5.90;;;13.90;99.90;;;;;;6162667;23;20024;-77
2021/09/19 05:28:40;;;;;;;9.77;7.00;;;13.80;99.90;;;;;;6188335;23;20013;-73
2021/09/19 05:31:06;;;;;;;8.90;6.03;;;13.80;99.90;;;;;;6186636;23;20039;-78
2021/09/19 05:33:32;;;;;;;15.85;6.65;;;13.80;99.90;;;;;;6165070;23;20020;-78
2021/09/19 05:35:57;;;;;;;7.47;6.22;;;13.70;99.90;;;;;;6188228;23;20024;-78
2021/09/19 05:38:23;;;;;;;9.32;6.20;;;13.70;99.90;;;;;;6188123;23;20075;-78
2021/09/19 05:40:49;;;;;;;10.30;6.65;;;13.60;99.90;;;;;;6188748;23;20476;-79
2021/09/19 05:43:15;;;;;;;11.05;6.93;;;13.60;99.90;;;;;;6187990;23;20016;-78
2021/09/19 05:45:44;;;;;;;11.05;6.70;;;13.60;99.90;;;;;;6163088;23;20016;-73
2021/09/19 05:48:10;;;;;;;8.93;6.80;;;13.50;99.90;;;;;;6162282;23;20063;-74
2021/09/19 05:50:35;;;;;;;8.77;7.15;;;13.50;99.90;;;;;;6186965;23;20016;-78
2021/09/19 05:53:01;;;;;;;11.57;7.13;;;13.40;99.90;;;;;;6212708;23;20055;-78
2021/09/19 05:55:27;;;;;;;9.35;7.68;;;13.40;99.90;;;;;;6186289;23;20123;-77
2021/09/19 05:57:53;;;;;;;12.57;8.07;;;13.40;99.90;;;;;;6186714;23;20039;-78
2021/09/19 06:00:19;;;;;;;8.20;6.82;;;13.30;99.90;;;;;;6188582;23;20016;-77
2021/09/19 06:02:45;;;;;;;9.15;7.38;;;13.30;99.90;;;;;;6210392;23;20024;-77
2021/09/19 06:05:10;;;;;;;10.65;8.07;;;13.30;99.90;;;;;;6212793;23;20315;-78
2021/09/19 06:07:37;;;;;;;9.43;7.82;;;13.30;99.90;;;;;;6187104;23;20033;-78
2021/09/19 06:10:04;;;;;;;11.85;7.72;;;13.30;99.90;;;;;;6209249;23;20016;-77
2021/09/19 06:12:30;;;;;;;9.80;7.32;;;13.30;99.90;;;;;;6211698;23;20016;-78
2021/09/19 06:14:56;;;;;;;10.32;7.72;;;13.30;99.90;;;;;;6187098;23;20024;-78
2021/09/19 06:17:22;;;;;;;11.65;7.78;;;13.20;99.90;;;;;;6182427;23;20023;-77
2021/09/19 06:19:48;;;;;;;10.73;8.07;;;13.30;99.90;;;;;;6163728;23;20391;-77
2021/09/19 06:22:15;;;;;;;12.35;8.10;;;13.30;99.90;;;;;;6210090;23;20019;-78
2021/09/19 06:24:41;;;;;;;11.10;8.23;;;13.30;99.90;;;;;;6181981;23;20082;-78
2021/09/19 06:27:06;;;;;;;10.45;8.40;;;13.30;99.90;;;;;;6181825;23;20103;-78
2021/09/19 06:29:32;;;;;;;11.73;7.90;;;13.40;99.90;;;;;;6202577;23;20023;-73
2021/09/19 06:31:58;;;;;;;10.95;7.80;;;13.30;99.90;;;;;;6180547;23;20020;-74
2021/09/19 06:34:24;;;;;;;13.05;8.57;;;13.40;99.90;;;;;;6181657;23;20449;-73
2021/09/19 06:36:50;;;;;;;11.02;8.13;;;13.40;99.90;;;;;;6180738;23;20020;-73
2021/09/19 06:39:16;;;;;;;13.95;8.90;;;13.40;99.90;;;;;;6182334;23;20027;-73
2021/09/19 06:41:42;;;;;;;10.52;8.55;;;13.40;99.90;;;;;;6181761;23;20099;-73
2021/09/19 06:44:08;;;;;;;14.70;9.32;;;13.40;99.90;;;;;;6180795;23;20667;-73
2021/09/19 06:46:33;;;;;;;11.35;8.65;;;13.50;99.90;;;;;;6205313;23;20367;-73
2021/09/19 06:49:01;;;;;;;12.82;9.40;;;13.50;99.90;;;;;;6205614;23;20016;-73
2021/09/19 06:51:27;;;;;;;11.65;9.25;;;13.60;99.90;;;;;;6207409;23;20601;-74
2021/09/19 06:53:53;;;;;;;13.40;9.82;;;13.60;99.90;;;;;;6182637;23;20027;-74
2021/09/19 06:56:21;;;;;;;13.80;9.27;;;13.60;99.90;;;;;;6156303;23;20016;-74
2021/09/19 06:58:48;;;;;;;11.98;9.55;;;13.60;99.90;;;;;;6205766;23;20445;-73
2021/09/19 07:01:15;;;;;;;12.10;9.00;;;13.60;99.90;;;;;;6207377;23;20021;-74
2021/09/19 07:03:44;;;;;;;13.35;9.02;;;13.70;99.90;;;;;;6206839;23;20024;-74
2021/09/19 07:06:10;;;;;;;12.50;9.88;;;13.70;99.90;;;;;;6155278;23;20017;-73
2021/09/19 07:08:35;;;;;;;10.88;9.23;;;13.80;99.90;;;;;;6205152;23;20035;-73
2021/09/19 07:11:02;;;;;;;12.38;10.13;;;13.80;99.90;;;;;;6156838;23;20016;-74
2021/09/19 07:13:28;;;;;;;13.95;10.27;;;13.80;99.90;;;;;;6205427;23;20378;-74
2021/09/19 07:15:54;;;;;;;13.02;9.57;;;13.80;99.90;;;;;;6155621;23;20110;-75
2021/09/19 07:18:23;;;;;;;12.27;10.23;;;13.90;99.90;;;;;;6180967;23;20024;-74
2021/09/19 07:20:53;;;;;;;13.73;9.90;;;13.90;99.90;;;;;;6181077;23;20091;-78
2021/09/19 07:23:24;;;;;;;11.82;10.10;;;13.90;99.90;;;;;;6179406;23;20017;-77
2021/09/19 07:25:52;;;;;;;;;;;14.00;99.90;;;;;;6156825;23;20108;-78
2021/09/19 07:28:18;;;;;;;12.68;10.30;;;14.00;99.90;;;;;;6179102;23;20396;-73
2021/09/19 07:30:44;;;;;;;11.85;9.73;;;14.00;99.90;;;;;;6180965;23;20020;-73
2021/09/19 07:33:11;;;;;;;14.25;10.35;;;14.10;99.90;;;;;;6183093;23;20083;-74
2021/09/19 07:35:37;;;;;;;11.05;9.90;;;14.10;99.90;;;;;;6181431;23;20016;-74
2021/09/19 07:38:04;;;;;;;11.68;10.07;;;14.20;99.90;;;;;;6208516;23;20016;-72
2021/09/19 07:40:30;;;;;;;12.02;9.60;;;14.20;99.90;;;;;;6208505;23;20012;-74
2021/09/19 07:42:59;;;;;;;12.75;10.18;;;14.30;99.90;;;;;;6183960;23;20453;-73
2021/09/19 07:45:26;;;;;;;11.98;10.25;;;14.30;99.90;;;;;;6208335;23;20046;-73
2021/09/19 07:47:53;;;;;;;11.80;9.73;;;14.40;99.90;;;;;;6207961;23;20090;-74
2021/09/19 07:50:19;;;;;;;12.38;10.13;;;14.40;99.90;;;;;;6208133;23;20035;-75
2021/09/19 07:52:45;;;;;;;11.25;10.00;;;14.50;99.90;;;;;;6208067;23;20043;-73
2021/09/19 07:55:14;;;;;;;11.45;9.43;;;14.50;99.90;;;;;;6182478;23;20176;-73
2021/09/19 07:57:42;;;;;;;13.13;10.65;;;14.60;99.90;;;;;;6180689;23;20070;-74
2021/09/19 08:00:08;;;;;;;12.93;9.63;;;14.60;99.90;;;;;;6181484;23;20070;-74
2021/09/19 08:02:34;;;;;;;12.98;9.98;;;14.70;99.90;;;;;;6203308;23;20066;-74
2021/09/19 08:05:00;;;;;;;13.52;10.18;;;14.70;99.90;;;;;;6203855;23;20502;-73
2021/09/19 08:07:26;;;;;;;12.50;9.77;;;14.80;99.90;;;;;;6180201;23;20369;-74
2021/09/19 08:09:51;;;;;;;10.63;9.50;;;14.90;99.90;;;;;;6181405;23;20023;-74
2021/09/19 08:12:17;;;;;;;12.48;9.27;;;14.90;99.90;;;;;;6202691;23;20075;-77
2021/09/19 08:14:43;;;;;;;11.75;9.65;;;15.00;99.90;;;;;;6176554;23;20012;-78
2021/09/19 08:17:09;;;;;;;10.10;9.07;;;15.10;99.90;;;;;;6176201;23;20020;-79
2021/09/19 08:19:35;;;;;;;13.05;9.35;;;15.20;99.90;;;;;;6179159;23;20023;-78
2021/09/19 08:22:00;;;;;;;11.70;8.98;;;15.20;99.90;;;;;;6182821;23;20021;-78
2021/09/19 08:24:26;;;;;;;11.18;9.00;;;15.30;99.90;;;;;;6180230;23;20490;-78
2021/09/19 08:26:52;;;;;;;12.85;10.00;;;15.30;99.90;;;;;;6206793;23;20095;-78
2021/09/19 08:29:18;;;;;;;11.50;9.13;;;15.30;99.90;;;;;;6182373;23;20021;-78
2021/09/19 08:31:44;;;;;;;12.30;8.60;;;15.40;99.90;;;;;;6182047;23;20021;-78
2021/09/19 08:34:10;;;;;;;12.20;9.00;;;15.40;99.90;;;;;;6157865;23;20096;-79
2021/09/19 08:36:36;;;;;;;12.60;9.07;;;15.50;99.90;;;;;;6204180;23;20214;-78
2021/09/19 08:39:05;;;;;;;12.07;8.98;;;15.50;99.90;;;;;;6209001;23;20017;-78
2021/09/19 08:41:30;;;;;;;11.65;8.77;;;15.60;99.90;;;;;;6205484;23;20573;-78
2021/09/19 08:43:57;;;;;;;11.93;9.05;;;15.60;99.90;;;;;;6207087;23;20020;-78
2021/09/19 08:46:24;;;;;;;11.52;9.00;;;15.70;99.90;;;;;;6155668;23;20075;-78
2021/09/19 08:48:56;;;;;;;9.82;8.82;;;15.70;99.90;;;;;;6206559;23;20337;-77
2021/09/19 08:51:22;;;;;;;13.40;8.63;;;15.70;99.90;;;;;;6183926;23;20398;-77
2021/09/19 08:53:53;;;;;;;10.10;8.52;;;15.80;99.90;;;;;;6181504;23;20044;-78
2021/09/19 08:56:24;;;;;;;11.75;9.10;;;15.90;99.90;;;;;;6180771;23;20052;-78
2021/09/19 08:58:51;;;;;;;11.13;8.40;;;15.90;99.90;;;;;;6202900;23;20392;-79
2021/09/19 09:01:17;;;;;;;14.10;8.95;;;16.00;99.90;;;;;;6204852;23;20491;-79
2021/09/19 09:03:44;;;;;;;10.05;7.82;;;16.10;99.90;;;;;;6182913;23;20020;-78
2021/09/19 09:06:14;;;;;;;10.70;8.48;;;16.10;99.90;;;;;;6208054;23;20052;-77
2021/09/19 09:08:41;;;;;;;9.60;8.60;;;16.20;99.90;;;;;;6158453;23;20114;-78
2021/09/19 09:11:07;;;;;;;11.55;8.70;;;16.30;99.90;;;;;;6182604;23;20110;-79
2021/09/19 09:13:37;;;;;;;11.07;8.55;;;16.30;99.90;;;;;;6180092;23;20028;-77
2021/09/19 10:15:40;;;;;;;9.88;7.10;;;18.80;94.60;;;;;;6223300;22;20107;-70
2021/09/19 10:18:08;;;;;;;6.93;6.10;;;18.90;95.50;;;;;;6245851;22;20358;-72
2021/09/19 10:20:48;;;;;;;7.97;6.18;;;18.90;94.40;;;;;;6271033;22;20332;-73
2021/09/19 10:23:29;;;;;;;8.75;6.95;;;19.10;94.70;;;;;;6270140;22;20019;-75
2021/09/19 10:26:08;;;;;;;9.60;6.80;;;19.20;94.00;;;;;;6268849;22;20041;-76
2021/09/19 10:28:38;;;;;;;8.65;6.00;;;19.20;92.60;;;;;;6248162;22;20050;-79
2021/09/19 10:31:15;;;;;;;;;;;19.10;92.30;;;;;;6246730;22;20462;-73
2021/09/19 10:33:43;;;;;;;7.25;5.85;;;19.00;92.20;;;;;;6273926;22;20129;-72
2021/09/19 10:36:11;;;;;;;7.53;5.97;;;18.90;93.30;;;;;;6271702;22;20453;-72
2021/09/19 10:38:40;;;;;;;7.43;6.22;;;19.10;93.60;;;;;;6245009;22;20023;-72
2021/09/19 10:41:21;;;;;;;7.18;5.82;;;19.20;94.10;;;;;;6272409;22;20016;-72
2021/09/19 10:43:51;;;;;;;6.50;5.03;;;19.40;93.20;;;;;;6245756;22;20027;-75
2021/09/19 10:46:35;;;;;;;8.48;5.80;;;19.50;91.60;;;;;;6248797;22;20529;-75
2021/09/19 10:49:19;;;;;;;8.00;6.00;;;19.50;91.50;;;;;;6246361;22;20439;-74
2021/09/19 10:52:00;;;;;;;7.28;6.28;;;19.40;91.00;;;;;;6273478;22;20019;-74
2021/09/19 10:54:55;;;;;;;7.50;6.50;;;19.30;90.80;;;;;;6271130;22;20161;-75
2021/09/19 10:57:32;;;;;;;7.45;5.75;;;19.30;91.90;;;;;;6247337;22;20015;-75
2021/09/19 11:00:16;;;;;;;8.45;6.13;;;19.40;92.60;;;;;;6240691;22;20480;-73
2021/09/19 11:03:02;;;;;;;7.82;5.75;;;19.60;91.60;;;;;;6241065;22;20443;-75
2021/09/19 11:05:36;;;;;;;8.00;4.80;;;19.70;90.90;;;;;;6270125;22;20050;-72
2021/09/19 11:08:09;;;;;;;5.30;4.47;;;19.70;90.80;;;;;;6260861;22;20023;-74
2021/09/19 11:10:39;;;;;;;6.20;5.10;;;19.90;91.00;;;;;;6239927;22;20045;-74
2021/09/19 11:13:18;;;;;;;5.88;4.90;;;20.00;89.90;;;;;;6240524;22;20016;-75
2021/09/19 11:16:04;;;;;;;6.03;4.60;;;20.10;89.00;;;;;;6259373;22;20073;-75
2021/09/19 11:18:31;;;;;;;9.13;4.85;;;20.20;90.10;;;;;;6266886;22;20354;-74
2021/09/19 11:21:10;;;;;;;6.93;4.72;;;20.30;90.60;;;;;;6237981;22;20114;-74
2021/09/19 11:23:44;;;;;;;5.80;4.80;;;20.50;90.60;;;;;;6261777;22;20019;-74
2021/09/19 11:26:11;;;;;;;6.78;4.85;;;20.50;88.90;;;;;;6241125;22;20129;-74
2021/09/19 11:28:37;;;;;;;6.47;4.75;;;20.50;88.70;;;;;;6244850;22;20073;-74
2021/09/19 11:31:04;;;;;;;5.88;4.60;;;20.50;88.40;;;;;;6238149;22;20058;-74
2021/09/19 11:33:31;;;;;;;6.90;4.45;;;20.50;87.30;;;;;;6268700;22;20019;-74
2021/09/19 11:36:15;;;;;;;5.75;4.78;;;20.50;87.30;;;;;;6270350;22;20463;-74
2021/09/19 11:39:00;;;;;;;6.05;4.90;;;20.60;86.60;;;;;;6269514;22;20117;-73
2021/09/19 11:41:27;;;;;;;11.05;4.70;;;20.50;87.50;;;;;;6271284;22;20457;-77
2021/09/19 11:43:55;;;;;;;5.65;4.30;;;20.50;86.90;;;;;;6271357;22;20015;-78
2021/09/19 11:46:24;;;;;;;7.78;3.97;;;20.50;87.80;;;;;;6264457;22;20323;-78
2021/09/19 11:48:54;;;;;;;7.50;4.47;;;20.50;87.70;;;;;;6244855;22;20090;-77
2021/09/19 11:51:22;;;;;;;6.72;4.30;;;20.60;86.90;;;;;;6246985;22;20022;-77
2021/09/19 11:53:56;;;;;;;6.25;4.00;;;20.60;87.40;;;;;;6270431;22;20015;-77
2021/09/19 11:56:24;;;;;;;6.70;3.75;;;20.70;85.60;;;;;;6269703;22;20016;-77
2021/09/19 11:58:54;;;;;;;4.88;3.65;;;20.50;83.90;;;;;;6267467;22;20011;-76
2021/09/19 12:01:27;;;;;;;4.57;3.38;;;20.30;85.20;;;;;;6245105;22;20015;-76
2021/09/19 12:04:03;;;;;;;4.65;3.60;;;20.20;85.90;;;;;;6268004;22;20020;-76
2021/09/19 12:06:28;;;;;;;6.25;4.25;;;20.30;86.00;;;;;;6245500;22;20015;-75
2021/09/19 12:08:54;;;;;;;10.68;4.18;;;20.20;85.80;;;;;;6270649;22;20121;-75
2021/09/19 12:11:20;;;;;;;6.63;4.18;;;20.10;85.90;;;;;;6266282;22;20019;-73
2021/09/19 12:13:49;;;;;;;5.40;4.10;;;20.00;87.00;;;;;;6215460;22;20016;-73
2021/09/19 12:16:22;;;;;;;4.90;3.80;;;19.90;87.50;;;;;;6270212;22;20076;-73
2021/09/19 12:18:50;;;;;;;7.40;4.18;;;19.90;87.10;;;;;;6269651;22;20023;-73
2021/09/19 12:21:25;;;;;;;6.47;4.57;;;19.70;88.90;;;;;;6269762;22;20027;-78
2021/09/19 12:23:56;;;;;;;4.95;3.85;;;19.70;87.20;;;;;;6274728;22;20084;-75
2021/09/19 12:26:24;;;;;;;7.25;4.03;;;19.60;88.10;;;;;;6222909;22;20352;-76
2021/09/19 12:28:52;;;;;;;7.07;4.05;;;19.60;87.10;;;;;;6269844;22;20209;-78
2021/09/19 12:31:41;;;;;;;6.57;4.60;;;19.40;88.30;;;;;;6271977;22;20410;-77
2021/09/19 12:34:09;;;;;;;6.03;4.75;;;19.30;87.50;;;;;;6273630;22;20094;-76
2021/09/19 12:36:52;;;;;;;7.20;4.95;;;19.10;88.10;;;;;;6272648;22;20390;-74
2021/09/19 12:39:23;;;;;;;7.05;4.57;;;18.90;89.70;;;;;;6270996;22;20029;-77
2021/09/19 12:41:52;;;;;;;7.15;4.50;;;18.90;89.80;;;;;;6270435;22;20019;-75
2021/09/19 12:44:24;;;;;;;5.75;4.63;;;18.80;89.70;;;;;;6269840;22;20696;-75
2021/09/19 12:46:57;;;;;;;6.55;4.25;;;18.80;89.40;;;;;;6245233;22;20154;-75
2021/09/19 12:49:31;;;;;;;6.70;3.70;;;18.70;90.10;;;;;;6248999;22;20016;-75
2021/09/19 12:52:16;;;;;;;5.63;3.95;;;18.70;90.60;;;;;;6244941;22;20523;-74
2021/09/19 12:54:54;;;;;;;6.28;3.78;;;18.70;90.20;;;;;;6273367;22;20019;-75
2021/09/19 12:57:22;;;;;;;6.30;4.07;;;18.70;90.60;;;;;;6248691;22;20347;-75
2021/09/19 12:59:49;;;;;;;8.23;4.30;;;19.00;90.80;;;;;;6271450;22;20063;-74
2021/09/19 13:02:15;;;;;;;5.68;3.60;;;19.30;90.30;;;;;;6247476;22;20026;-75
2021/09/19 13:04:42;;;;;;;5.32;3.95;;;19.50;89.00;;;;;;6271228;22;20026;-75
2021/09/19 13:07:08;;;;;;;5.53;3.90;;;19.70;86.80;;;;;;6272536;22;20093;-77
2021/09/19 13:09:34;;;;;;;5.10;3.80;;;19.60;87.90;;;;;;6223159;22;20022;-78
2021/09/19 13:12:00;;;;;;;6.63;4.00;;;19.50;88.40;;;;;;6244584;22;20019;-76
2021/09/19 13:14:26;;;;;;;6.28;3.80;;;19.50;88.20;;;;;;6243483;22;20094;-77
2021/09/19 13:16:54;;;;;;;5.53;4.15;;;19.40;88.00;;;;;;6242557;22;20054;-77
2021/09/19 13:19:23;;;;;;;7.25;4.20;;;19.40;88.60;;;;;;6217260;22;20058;-77
2021/09/19 13:21:49;;;;;;;7.78;4.22;;;19.30;89.00;;;;;;6244322;22;20439;-77
2021/09/19 13:24:20;;;;;;;7.25;4.22;;;19.10;89.50;;;;;;6241322;22;20023;-77
2021/09/19 13:26:47;;;;;;;6.13;4.40;;;19.10;89.80;;;;;;6247268;22;20019;-77
2021/09/19 13:29:15;;;;;;;5.85;4.20;;;19.00;89.40;;;;;;6218347;22;20019;-77
2021/09/19 13:31:46;;;;;;;5.88;4.28;;;18.90;89.30;;;;;;6222887;22;20015;-77
2021/09/19 13:34:12;;;;;;;6.03;4.10;;;18.90;90.00;;;;;;6243366;22;20057;-77
2021/09/19 13:36:40;;;;;;;6.90;4.03;;;18.90;90.10;;;;;;6266596;22;20388;-77
2021/09/19 13:39:08;;;;;;;5.95;4.30;;;18.90;90.40;;;;;;6221046;22;20026;-77
2021/09/19 13:41:34;;;;;;;6.40;3.80;;;19.00;90.40;;;;;;6265592;22;20845;-77
2021/09/19 13:44:06;;;;;;;4.93;3.75;;;19.10;90.50;;;;;;6247070;22;20019;-78
2021/09/19 13:46:32;;;;;;;5.80;4.15;;;19.10;90.60;;;;;;6273850;22;20051;-78